createdAt,value
2018-07-20T00:01:07.154Z,12.80
2018-07-20T00:03:35.103Z,12.80
2018-07-20T00:06:03.135Z,12.80
2018-07-20T00:08:31.244Z,12.80
2018-07-20T00:10:59.102Z,12.70
2018-07-20T00:13:26.985Z,12.70
2018-07-20T00:15:54.814Z,12.70
2018-07-20T00:18:22.747Z,12.60
2018-07-20T00:20:50.555Z,12.60
2018-07-20T00:23:18.527Z,12.60
2018-07-20T00:25:46.330Z,12.60
2018-07-20T00:28:14.192Z,12.50
2018-07-20T00:30:42.060Z,12.50
2018-07-20T00:33:09.991Z,12.50
2018-07-20T00:35:37.804Z,12.40
2018-07-20T00:38:05.742Z,12.40
2018-07-20T00:40:33.622Z,12.40
2018-07-20T00:43:02.000Z,12.30
2018-07-20T00:45:29.876Z,12.30
2018-07-20T00:47:57.803Z,12.30
2018-07-20T00:50:25.632Z,12.20
2018-07-20T00:52:53.464Z,12.20
2018-07-20T00:55:21.488Z,12.20
2018-07-20T00:57:49.446Z,12.20
2018-07-20T01:00:23.768Z,12.10
2018-07-20T01:02:51.592Z,12.10
2018-07-20T01:05:19.388Z,12.10
2018-07-20T01:07:47.192Z,12.00
2018-07-20T01:10:14.999Z,12.00
2018-07-20T01:12:42.816Z,12.00
2018-07-20T01:15:10.807Z,12.00
2018-07-20T01:17:38.713Z,11.90
2018-07-20T01:20:07.280Z,11.90
2018-07-20T01:22:35.010Z,11.90
2018-07-20T01:25:02.990Z,11.90
2018-07-20T01:27:30.898Z,11.80
2018-07-20T01:29:58.768Z,11.80
2018-07-20T01:32:26.670Z,11.80
2018-07-20T01:34:54.622Z,11.80
2018-07-20T01:37:22.412Z,11.80
2018-07-20T01:39:50.268Z,11.80
2018-07-20T01:42:18.080Z,11.70
2018-07-20T01:44:45.810Z,11.70
2018-07-20T01:47:13.644Z,11.70
2018-07-20T01:49:41.514Z,11.70
2018-07-20T01:54:37.074Z,11.60
2018-07-20T01:57:04.972Z,11.60
2018-07-20T01:59:32.866Z,11.60
2018-07-20T02:04:28.226Z,11.50
2018-07-20T02:06:56.781Z,11.50
2018-07-20T02:09:24.614Z,11.40
2018-07-20T02:11:52.465Z,11.40
2018-07-20T02:14:20.392Z,11.40
2018-07-20T02:19:15.898Z,11.30
2018-07-20T02:21:43.716Z,11.30
2018-07-20T02:24:11.634Z,11.20
2018-07-20T02:26:39.440Z,11.20
2018-07-20T02:29:07.188Z,11.10
2018-07-20T02:31:34.951Z,11.10
2018-07-20T02:34:02.892Z,11.10
2018-07-20T02:36:30.790Z,11.00
2018-07-20T02:38:58.806Z,11.00
2018-07-20T02:41:26.621Z,11.00
2018-07-20T02:43:54.481Z,10.90
2018-07-20T02:46:23.133Z,10.90
2018-07-20T02:48:50.966Z,10.90
2018-07-20T02:51:19.668Z,10.90
2018-07-20T02:53:47.504Z,10.90
2018-07-20T02:56:15.253Z,10.90
2018-07-20T02:58:43.031Z,10.80
2018-07-20T03:01:10.880Z,10.80
2018-07-20T03:03:38.681Z,10.70
2018-07-20T03:06:06.650Z,10.70
2018-07-20T03:13:29.594Z,10.90
2018-07-20T03:15:57.755Z,10.80
2018-07-20T03:18:25.642Z,10.70
2018-07-20T03:20:53.532Z,10.70
2018-07-20T03:23:21.322Z,10.60
2018-07-20T03:25:49.156Z,10.60
2018-07-20T03:28:17.002Z,10.60
2018-07-20T03:30:44.825Z,10.60
2018-07-20T03:38:08.417Z,10.70
2018-07-20T03:40:36.528Z,10.60
2018-07-20T03:43:04.463Z,10.60
2018-07-20T03:45:32.300Z,10.60
2018-07-20T03:48:00.112Z,10.60
2018-07-20T03:50:27.944Z,10.60
2018-07-20T03:52:55.754Z,10.70
2018-07-20T03:55:23.536Z,10.80
2018-07-20T03:57:51.335Z,10.80
2018-07-20T04:00:19.291Z,10.90
2018-07-20T04:02:47.241Z,11.00
2018-07-20T04:05:15.082Z,11.10
2018-07-20T04:07:42.902Z,11.20
2018-07-20T04:10:10.812Z,11.30
2018-07-20T04:12:38.791Z,11.40
2018-07-20T04:15:06.672Z,11.50
2018-07-20T04:17:45.567Z,11.60
2018-07-20T04:20:15.061Z,11.60
2018-07-20T04:22:42.920Z,11.70
2018-07-20T04:25:10.789Z,11.80
2018-07-20T04:27:38.642Z,11.80
2018-07-20T04:30:08.634Z,11.90
2018-07-20T04:32:36.472Z,12.00
2018-07-20T04:37:32.004Z,12.20
2018-07-20T04:39:59.960Z,12.40
2018-07-20T04:42:28.050Z,12.50
2018-07-20T04:44:56.207Z,12.60
2018-07-20T04:47:23.998Z,12.80
2018-07-20T04:49:51.935Z,12.90
2018-07-20T04:52:19.959Z,13.10
2018-07-20T04:54:47.780Z,13.20
2018-07-20T04:57:15.828Z,13.40
2018-07-20T04:59:44.054Z,13.60
2018-07-20T05:02:12.169Z,13.80
2018-07-20T05:04:40.088Z,14.00
2018-07-20T05:07:08.494Z,14.20
2018-07-20T05:09:36.553Z,14.40
2018-07-20T05:12:05.694Z,14.60
2018-07-20T05:14:33.591Z,14.80
2018-07-20T05:17:01.722Z,15.00
2018-07-20T05:19:30.088Z,15.20
2018-07-20T05:21:58.030Z,15.30
2018-07-20T05:24:25.932Z,15.50
2018-07-20T05:26:54.132Z,15.60
2018-07-20T05:29:22.179Z,15.80
2018-07-20T05:31:50.307Z,15.90
2018-07-20T05:34:18.264Z,16.10
2018-07-20T05:36:46.530Z,16.30
2018-07-20T05:39:14.419Z,16.40
2018-07-20T05:41:42.529Z,16.60
2018-07-20T05:44:10.508Z,16.70
2018-07-20T05:46:38.504Z,16.80
2018-07-20T05:49:06.570Z,17.00
2018-07-20T05:51:34.393Z,17.20
2018-07-20T05:54:02.206Z,17.30
2018-07-20T05:56:30.207Z,17.40
2018-07-20T05:58:58.473Z,17.60
2018-07-20T06:01:26.264Z,17.80
2018-07-20T06:03:54.058Z,17.90
2018-07-20T06:06:21.949Z,18.10
2018-07-20T06:08:49.892Z,18.20
2018-07-20T06:11:17.927Z,18.30
2018-07-20T06:13:46.236Z,18.50
2018-07-20T06:18:41.876Z,18.80
2018-07-20T06:21:09.827Z,18.90
2018-07-20T06:23:38.316Z,19.00
2018-07-20T06:26:07.417Z,19.20
2018-07-20T06:28:35.278Z,19.40
2018-07-20T06:31:03.417Z,19.50
2018-07-20T06:33:31.563Z,19.60
2018-07-20T06:35:59.349Z,19.70
2018-07-20T06:38:27.505Z,19.80
2018-07-20T06:40:55.263Z,20.00
2018-07-20T06:43:23.080Z,20.10
2018-07-20T06:45:51.003Z,20.20
2018-07-20T06:48:18.834Z,20.40
2018-07-20T06:53:14.197Z,20.60
2018-07-20T06:55:42.097Z,20.80
2018-07-20T06:58:09.863Z,21.00
2018-07-20T07:00:37.809Z,21.20
2018-07-20T07:03:05.637Z,21.40
2018-07-20T07:05:33.415Z,21.50
2018-07-20T07:08:01.356Z,21.60
2018-07-20T07:10:29.435Z,21.70
2018-07-20T07:12:57.302Z,21.80
2018-07-20T07:15:26.849Z,21.80
2018-07-20T07:17:55.976Z,22.00
2018-07-20T07:20:28.824Z,22.10
2018-07-20T07:22:57.228Z,22.30
2018-07-20T07:25:27.245Z,22.40
2018-07-20T07:27:56.729Z,22.70
2018-07-20T07:30:26.529Z,22.80
2018-07-20T07:33:03.599Z,23.00
2018-07-20T07:35:34.251Z,23.00
2018-07-20T07:38:03.690Z,23.10
2018-07-20T07:43:25.878Z,23.40
2018-07-20T07:45:55.522Z,23.50
2018-07-20T07:48:29.328Z,23.50
2018-07-20T07:53:27.591Z,23.70
2018-07-20T07:58:49.563Z,23.90
2018-07-20T08:01:19.104Z,23.90
2018-07-20T08:03:48.448Z,23.90
2018-07-20T08:06:17.968Z,24.10
2018-07-20T08:08:47.778Z,24.20
2018-07-20T08:11:17.905Z,24.40
2018-07-20T08:13:47.714Z,24.50
2018-07-20T08:19:09.776Z,24.80
2018-07-20T08:21:39.227Z,24.80
2018-07-20T08:25:38.840Z,24.90
2018-07-20T08:28:08.168Z,24.90
2018-07-20T08:30:37.613Z,24.90
2018-07-20T08:33:07.287Z,24.80
2018-07-20T08:38:29.637Z,25.00
2018-07-20T08:40:59.939Z,25.20
2018-07-20T08:43:29.310Z,25.30
2018-07-20T08:45:59.078Z,25.40
2018-07-20T08:48:28.253Z,25.50
2018-07-20T08:50:57.572Z,25.70
2018-07-20T08:53:27.068Z,25.90
2018-07-20T08:55:56.920Z,26.00
2018-07-20T08:58:26.507Z,26.00
2018-07-20T09:00:55.996Z,25.90
2018-07-20T09:03:25.705Z,26.00
2018-07-20T09:05:55.498Z,26.10
2018-07-20T09:13:22.497Z,26.20
2018-07-20T09:15:52.122Z,26.20
2018-07-20T09:18:21.466Z,26.20
2018-07-20T09:20:51.471Z,26.40
2018-07-20T09:23:21.292Z,26.50
2018-07-20T09:25:51.232Z,26.20
2018-07-20T09:28:23.129Z,25.90
2018-07-20T09:30:52.807Z,25.70
2018-07-20T09:33:22.391Z,25.50
2018-07-20T09:35:54.018Z,25.60
2018-07-20T09:43:21.842Z,25.50
2018-07-20T09:45:54.457Z,25.50
2018-07-20T09:50:56.531Z,25.50
2018-07-20T09:58:24.820Z,25.60
2018-07-20T10:00:55.755Z,26.00
2018-07-20T10:03:26.148Z,26.30
2018-07-20T10:05:55.547Z,26.70
2018-07-20T10:08:25.733Z,26.90
2018-07-20T10:10:55.682Z,27.20
2018-07-20T10:13:24.926Z,27.30
2018-07-20T10:15:54.386Z,27.40
2018-07-20T10:18:23.509Z,27.60
2018-07-20T10:23:52.165Z,28.00
2018-07-20T10:26:21.335Z,28.20
2018-07-20T10:28:52.086Z,28.40
2018-07-20T10:31:21.687Z,28.60
2018-07-20T10:33:52.637Z,28.60
2018-07-20T10:36:22.369Z,28.60
2018-07-20T10:47:25.698Z,28.60
2018-07-20T10:49:55.445Z,28.40
2018-07-20T10:58:12.071Z,27.50
2018-07-20T11:06:26.764Z,28.00
2018-07-20T11:08:56.357Z,27.80
2018-07-20T11:11:26.075Z,27.50
2018-07-20T11:13:55.793Z,27.20
2018-07-20T11:16:25.944Z,26.80
2018-07-20T11:19:01.156Z,26.60
2018-07-20T11:21:30.822Z,26.60
2018-07-20T11:26:53.380Z,27.40
2018-07-20T11:29:23.414Z,27.90
2018-07-20T11:31:53.134Z,27.90
2018-07-20T11:34:28.656Z,28.00
2018-07-20T11:36:58.412Z,28.10
2018-07-20T11:42:15.077Z,28.60
2018-07-20T11:44:45.019Z,28.60
2018-07-20T11:47:14.686Z,28.70
2018-07-20T11:49:45.313Z,29.00
2018-07-20T11:52:15.183Z,29.30
2018-07-20T11:54:44.949Z,29.50
2018-07-20T11:57:15.222Z,29.70
2018-07-20T11:59:46.187Z,29.90
2018-07-20T12:02:16.921Z,30.20
2018-07-20T12:04:47.150Z,30.50
2018-07-20T12:07:16.898Z,30.40
2018-07-20T12:09:47.261Z,30.50
2018-07-20T12:12:17.399Z,30.70
2018-07-20T12:14:48.095Z,30.50
2018-07-20T12:20:10.830Z,30.60
2018-07-20T12:22:41.111Z,30.70
2018-07-20T12:25:10.855Z,30.60
2018-07-20T12:27:40.809Z,30.50
2018-07-20T12:33:22.584Z,30.10
2018-07-20T12:38:47.937Z,30.10
2018-07-20T12:41:20.608Z,30.20
2018-07-20T12:44:02.969Z,30.40
2018-07-20T12:49:28.691Z,30.80
2018-07-20T12:52:05.732Z,30.90
2018-07-20T13:02:58.445Z,29.60
2018-07-20T13:05:34.359Z,29.50
2018-07-20T13:08:07.788Z,29.60
2018-07-20T13:13:24.861Z,30.00
2018-07-20T13:15:55.053Z,30.10
2018-07-20T13:18:24.776Z,30.20
2018-07-20T13:20:54.121Z,30.10
2018-07-20T13:23:24.547Z,30.00
2018-07-20T13:28:47.065Z,30.00
2018-07-20T13:31:21.489Z,29.90
2018-07-20T13:33:51.165Z,30.00
2018-07-20T13:36:20.753Z,30.00
2018-07-20T13:38:50.773Z,29.70
2018-07-20T13:47:07.351Z,29.70
2018-07-20T13:49:37.268Z,29.60
2018-07-20T13:52:07.186Z,29.50
2018-07-20T13:54:42.927Z,29.60
2018-07-20T13:57:12.630Z,29.80
2018-07-20T13:59:42.566Z,29.70
2018-07-20T14:02:12.131Z,29.30
2018-07-20T14:07:33.735Z,29.00
2018-07-20T14:10:03.994Z,29.10
2018-07-20T14:12:33.780Z,29.20
2018-07-20T14:15:03.904Z,29.10
2018-07-20T14:17:33.898Z,29.10
2018-07-20T14:20:03.534Z,29.20
2018-07-20T14:22:43.816Z,29.20
2018-07-20T14:25:14.049Z,29.10
2018-07-20T14:27:42.865Z,29.10
2018-07-20T14:30:18.169Z,29.20
2018-07-20T14:35:40.117Z,29.60
2018-07-20T14:38:14.518Z,29.70
2018-07-20T14:40:44.620Z,29.80
2018-07-20T14:43:13.987Z,30.00
2018-07-20T14:45:43.535Z,30.00
2018-07-20T14:48:28.620Z,30.10
2018-07-20T14:50:58.508Z,30.20
2018-07-20T14:53:27.817Z,30.20
2018-07-20T14:55:57.169Z,30.10
2018-07-20T14:58:26.996Z,29.80
2018-07-20T15:00:56.724Z,29.60
2018-07-20T15:03:26.154Z,29.40
2018-07-20T15:05:55.347Z,29.10
2018-07-20T15:08:25.372Z,29.00
2018-07-20T15:10:54.605Z,28.90
2018-07-20T15:13:24.938Z,28.70
2018-07-20T15:15:54.874Z,28.70
2018-07-20T15:18:24.622Z,28.80
2018-07-20T15:20:54.047Z,28.90
2018-07-20T15:28:44.371Z,28.90
2018-07-20T15:31:13.595Z,28.70
2018-07-20T15:33:43.446Z,28.60
2018-07-20T15:36:12.850Z,28.50
2018-07-20T15:38:48.413Z,28.40
2018-07-20T15:41:18.267Z,28.20
2018-07-20T15:43:47.833Z,28.00
2018-07-20T15:46:17.379Z,27.80
2018-07-20T15:48:46.615Z,27.60
2018-07-20T15:51:20.227Z,27.50
2018-07-20T15:56:20.083Z,27.40
2018-07-20T15:58:49.917Z,27.40
2018-07-20T16:01:24.303Z,27.30
2018-07-20T16:03:53.857Z,27.30
2018-07-20T16:06:23.455Z,27.20
2018-07-20T16:08:53.089Z,27.20
2018-07-20T16:11:22.671Z,27.10
2018-07-20T16:13:51.694Z,27.00
2018-07-20T16:16:21.159Z,26.70
2018-07-20T16:18:50.864Z,26.50
2018-07-20T16:21:20.692Z,26.30
2018-07-20T16:23:50.654Z,26.20
2018-07-20T16:28:49.576Z,26.00
2018-07-20T16:33:48.357Z,25.80
2018-07-20T16:36:18.201Z,25.70
2018-07-20T16:41:17.044Z,25.70
2018-07-20T16:43:46.691Z,25.70
2018-07-20T16:46:16.723Z,25.60
2018-07-20T16:48:46.337Z,25.60
2018-07-20T16:51:16.561Z,25.60
2018-07-20T16:53:46.564Z,25.50
2018-07-20T16:56:16.294Z,25.50
2018-07-20T16:58:45.542Z,25.50
2018-07-20T17:01:15.318Z,25.50
2018-07-20T17:03:45.400Z,25.40
2018-07-20T17:06:14.595Z,25.40
2018-07-20T17:08:44.201Z,25.30
2018-07-20T17:11:14.152Z,25.20
2018-07-20T17:16:36.329Z,25.10
2018-07-20T17:19:05.615Z,25.00
2018-07-20T17:21:35.629Z,25.00
2018-07-20T17:24:05.189Z,24.90
2018-07-20T17:26:34.982Z,24.80
2018-07-20T17:29:04.843Z,24.80
2018-07-20T17:31:34.492Z,24.80
2018-07-20T17:34:04.051Z,24.70
2018-07-20T17:36:33.747Z,24.70
2018-07-20T17:39:11.669Z,24.60
2018-07-20T17:44:33.800Z,24.50
2018-07-20T17:47:03.354Z,24.40
2018-07-20T17:49:33.091Z,24.30
2018-07-20T17:54:32.887Z,24.20
2018-07-20T17:57:03.265Z,24.10
2018-07-20T17:59:33.102Z,24.10
2018-07-20T18:02:02.832Z,24.00
2018-07-20T18:04:32.814Z,24.00
2018-07-20T18:07:02.317Z,23.90
2018-07-20T18:12:01.274Z,23.70
2018-07-20T18:14:30.609Z,23.70
2018-07-20T18:17:00.182Z,23.60
2018-07-20T18:19:31.131Z,23.50
2018-07-20T18:22:00.951Z,23.50
2018-07-20T18:24:30.124Z,23.40
2018-07-20T18:27:01.222Z,23.30
2018-07-20T18:29:30.561Z,23.20
2018-07-20T18:32:00.754Z,23.10
2018-07-20T18:34:30.836Z,23.10
2018-07-20T18:37:00.129Z,23.00
2018-07-20T18:39:29.977Z,22.90
2018-07-20T18:41:59.568Z,22.80
2018-07-20T18:44:29.493Z,22.70
2018-07-20T18:46:59.175Z,22.70
2018-07-20T18:49:28.972Z,22.60
2018-07-20T18:51:58.601Z,22.50
2018-07-20T18:54:28.423Z,22.50
2018-07-20T18:56:58.287Z,22.40
2018-07-20T18:59:27.292Z,22.30
2018-07-20T19:01:56.927Z,22.20
2018-07-20T19:04:26.136Z,22.10
2018-07-20T19:06:55.395Z,22.00
2018-07-20T19:09:25.240Z,21.90
2018-07-20T19:11:54.931Z,21.90
2018-07-20T19:14:24.238Z,21.80
2018-07-20T19:16:54.288Z,21.70
2018-07-20T19:19:24.128Z,21.50
2018-07-20T19:21:53.984Z,21.40
2018-07-20T19:24:23.518Z,21.30
2018-07-20T19:26:53.068Z,21.10
2018-07-20T19:29:23.220Z,21.00
2018-07-20T19:31:52.699Z,20.80
2018-07-20T19:34:22.339Z,20.70
2018-07-20T19:36:51.831Z,20.50
2018-07-20T19:39:21.827Z,20.40
2018-07-20T19:41:51.074Z,20.30
2018-07-20T19:44:20.627Z,20.20
2018-07-20T19:46:50.334Z,20.10
2018-07-20T19:49:20.392Z,20.00
2018-07-20T19:51:50.649Z,19.90
2018-07-20T19:54:20.610Z,19.80
2018-07-20T19:56:49.557Z,19.70
2018-07-20T19:59:20.449Z,19.60
2018-07-20T20:01:50.683Z,19.60
2018-07-20T20:04:20.908Z,19.50
2018-07-20T20:06:51.349Z,19.50
2018-07-20T20:09:22.118Z,19.40
2018-07-20T20:11:52.103Z,19.40
2018-07-20T20:14:22.415Z,19.30
2018-07-20T20:16:52.047Z,19.20
2018-07-20T20:19:22.163Z,19.10
2018-07-20T20:21:52.095Z,19.10
2018-07-20T20:24:21.977Z,19.00
2018-07-20T20:26:51.754Z,19.00
2018-07-20T20:29:21.501Z,18.90
2018-07-20T20:31:51.735Z,18.80
2018-07-20T20:34:21.663Z,18.70
2018-07-20T20:39:37.563Z,18.50
2018-07-20T20:42:08.233Z,18.40
2018-07-20T20:44:38.880Z,18.30
2018-07-20T20:47:08.880Z,18.20
2018-07-20T20:49:38.624Z,18.10
2018-07-20T20:52:08.852Z,18.00
2018-07-20T20:54:41.085Z,17.90
2018-07-20T20:57:11.468Z,17.90
2018-07-20T20:59:40.319Z,17.90
2018-07-20T21:02:08.833Z,17.80
2018-07-20T21:04:37.633Z,17.70
2018-07-20T21:07:05.907Z,17.70
2018-07-20T21:09:34.579Z,17.60
2018-07-20T21:12:03.068Z,17.60
2018-07-20T21:14:31.925Z,17.50
2018-07-20T21:17:00.543Z,17.40
2018-07-20T21:19:29.027Z,17.40
2018-07-20T21:21:57.204Z,17.30
2018-07-20T21:24:25.427Z,17.30
2018-07-20T21:26:53.936Z,17.20
2018-07-20T21:29:22.701Z,17.10
2018-07-20T21:31:50.934Z,17.20
2018-07-20T21:34:19.593Z,17.10
2018-07-20T21:36:47.899Z,17.10
2018-07-20T21:39:16.309Z,17.10
2018-07-20T21:41:44.997Z,17.10
2018-07-20T21:44:13.737Z,17.00
2018-07-20T21:46:42.027Z,16.90
2018-07-20T21:49:09.965Z,16.90
2018-07-20T21:51:37.726Z,16.80
2018-07-20T21:54:05.397Z,16.80
2018-07-20T21:56:33.314Z,16.80
2018-07-20T22:01:28.730Z,16.70
2018-07-20T22:03:56.592Z,16.60
2018-07-20T22:06:24.467Z,16.60
2018-07-20T22:08:52.286Z,16.60
2018-07-20T22:11:20.161Z,16.50
2018-07-20T22:13:47.995Z,16.50
2018-07-20T22:16:15.947Z,16.50
2018-07-20T22:18:43.848Z,16.40
2018-07-20T22:21:11.739Z,16.40
2018-07-20T22:23:39.725Z,16.30
2018-07-20T22:26:07.590Z,16.30
2018-07-20T22:28:35.491Z,16.20
2018-07-20T22:31:03.365Z,16.20
2018-07-20T22:33:31.255Z,16.10
2018-07-20T22:35:59.055Z,16.00
2018-07-20T22:38:27.076Z,16.00
2018-07-20T22:40:55.010Z,15.90
2018-07-20T22:43:23.105Z,15.90
2018-07-20T22:45:52.132Z,15.90
2018-07-20T22:48:19.959Z,15.90
2018-07-20T22:50:47.900Z,15.90
2018-07-20T22:53:15.927Z,15.90
2018-07-20T22:55:44.656Z,15.90
2018-07-20T22:58:12.483Z,16.00
2018-07-20T23:00:40.307Z,15.90
2018-07-20T23:03:08.057Z,15.90
2018-07-20T23:05:36.269Z,15.90
2018-07-20T23:08:04.496Z,15.90
2018-07-20T23:10:32.442Z,15.90
2018-07-20T23:13:00.229Z,15.80
2018-07-20T23:15:28.102Z,15.80
2018-07-20T23:17:56.108Z,15.80
2018-07-20T23:20:24.005Z,15.70
2018-07-20T23:22:51.935Z,15.70
2018-07-20T23:25:19.920Z,15.70
2018-07-20T23:27:47.851Z,15.60
2018-07-20T23:30:15.688Z,15.60
2018-07-20T23:32:43.468Z,15.60
2018-07-20T23:35:11.226Z,15.50
2018-07-20T23:37:39.056Z,15.50
2018-07-20T23:40:06.925Z,15.40
2018-07-20T23:42:35.056Z,15.40
2018-07-20T23:45:03.099Z,15.30
2018-07-20T23:47:31.085Z,15.30
2018-07-20T23:49:59.213Z,15.20
2018-07-20T23:52:27.157Z,15.10
2018-07-20T23:54:55.054Z,15.10
2018-07-20T23:57:23.076Z,15.00
2018-07-20T23:59:51.046Z,15.00
